sensor_id;sensor_type;location;lat;lon;timestamp;P1;durP1;ratioP1;P2;durP2;ratioP2
25609;SDS011;13479;49.044;8.716;2023-05-07T04:02:45;6.93;;;2.83;;
25609;SDS011;13479;49.044;8.716;2023-05-07T04:05:11;5.22;;;3.00;;
25609;SDS011;13479;49.044;8.716;2023-05-07T04:07:38;5.03;;;2.83;;
25609;SDS011;13479;49.044;8.716;2023-05-07T04:10:04;5.93;;;2.97;;
25609;SDS011;13479;49.044;8.716;2023-05-07T04:12:29;3.78;;;2.60;;
25609;SDS011;13479;49.044;8.716;2023-05-07T04:14:55;7.53;;;2.60;;
25609;SDS011;13479;49.044;8.716;2023-05-07T04:17:20;7.93;;;2.40;;
25609;SDS011;13479;49.044;8.716;2023-05-07T04:19:45;4.90;;;2.40;;
25609;SDS011;13479;49.044;8.716;2023-05-07T04:22:11;5.45;;;2.60;;
25609;SDS011;13479;49.044;8.716;2023-05-07T04:24:37;4.13;;;2.63;;
25609;SDS011;13479;49.044;8.716;2023-05-07T04:27:02;3.75;;;2.50;;
25609;SDS011;13479;49.044;8.716;2023-05-07T04:29:27;4.00;;;2.72;;
25609;SDS011;13479;49.044;8.716;2023-05-07T04:31:53;5.97;;;2.80;;
25609;SDS011;13479;49.044;8.716;2023-05-07T04:34:20;4.43;;;2.90;;
25609;SDS011;13479;49.044;8.716;2023-05-07T04:36:46;3.33;;;2.50;;
25609;SDS011;13479;49.044;8.716;2023-05-07T04:39:11;7.38;;;3.15;;
25609;SDS011;13479;49.044;8.716;2023-05-07T04:41:37;5.78;;;2.78;;
25609;SDS011;13479;49.044;8.716;2023-05-07T04:44:02;6.38;;;2.60;;
25609;SDS011;13479;49.044;8.716;2023-05-07T04:46:28;5.53;;;2.88;;
25609;SDS011;13479;49.044;8.716;2023-05-07T04:48:54;5.93;;;3.05;;
25609;SDS011;13479;49.044;8.716;2023-05-07T04:51:19;7.03;;;2.85;;
25609;SDS011;13479;49.044;8.716;2023-05-07T04:53:44;4.85;;;2.90;;
25609;SDS011;13479;49.044;8.716;2023-05-07T04:56:10;4.75;;;2.70;;
25609;SDS011;13479;49.044;8.716;2023-05-07T04:58:35;8.23;;;3.10;;
25609;SDS011;13479;49.044;8.716;2023-05-07T05:01:00;6.22;;;2.97;;
25609;SDS011;13479;49.044;8.716;2023-05-07T05:03:26;4.85;;;2.72;;
25609;SDS011;13479;49.044;8.716;2023-05-07T05:05:52;7.60;;;2.97;;
25609;SDS011;13479;49.044;8.716;2023-05-07T05:08:17;4.20;;;2.88;;
25609;SDS011;13479;49.044;8.716;2023-05-07T05:10:43;7.25;;;3.67;;
25609;SDS011;13479;49.044;8.716;2023-05-07T05:13:08;7.10;;;3.65;;
25609;SDS011;13479;49.044;8.716;2023-05-07T05:15:34;4.05;;;3.08;;
25609;SDS011;13479;49.044;8.716;2023-05-07T05:17:59;4.47;;;2.70;;
25609;SDS011;13479;49.044;8.716;2023-05-07T05:20:25;4.30;;;2.58;;
25609;SDS011;13479;49.044;8.716;2023-05-07T05:22:50;4.05;;;2.50;;
25609;SDS011;13479;49.044;8.716;2023-05-07T05:25:16;4.22;;;3.05;;
25609;SDS011;13479;49.044;8.716;2023-05-07T05:27:41;4.55;;;2.45;;
25609;SDS011;13479;49.044;8.716;2023-05-07T05:30:06;6.25;;;2.50;;
25609;SDS011;13479;49.044;8.716;2023-05-07T05:32:32;4.80;;;2.33;;
25609;SDS011;13479;49.044;8.716;2023-05-07T05:34:57;4.95;;;2.40;;
25609;SDS011;13479;49.044;8.716;2023-05-07T05:37:22;2.95;;;2.30;;
25609;SDS011;13479;49.044;8.716;2023-05-07T05:39:48;4.93;;;2.70;;
25609;SDS011;13479;49.044;8.716;2023-05-07T05:42:13;5.00;;;2.20;;
25609;SDS011;13479;49.044;8.716;2023-05-07T05:44:38;4.15;;;1.88;;
25609;SDS011;13479;49.044;8.716;2023-05-07T05:47:03;4.88;;;2.20;;
25609;SDS011;13479;49.044;8.716;2023-05-07T05:49:29;6.43;;;2.20;;
25609;SDS011;13479;49.044;8.716;2023-05-07T05:51:54;2.92;;;2.03;;
25609;SDS011;13479;49.044;8.716;2023-05-07T05:54:20;4.60;;;2.40;;
25609;SDS011;13479;49.044;8.716;2023-05-07T05:56:45;4.10;;;2.33;;
25609;SDS011;13479;49.044;8.716;2023-05-07T05:59:11;3.63;;;2.28;;
25609;SDS011;13479;49.044;8.716;2023-05-07T06:01:36;3.90;;;2.20;;
25609;SDS011;13479;49.044;8.716;2023-05-07T06:04:01;3.28;;;1.73;;
25609;SDS011;13479;49.044;8.716;2023-05-07T06:06:27;3.00;;;1.40;;
25609;SDS011;13479;49.044;8.716;2023-05-07T06:08:53;2.75;;;1.92;;
25609;SDS011;13479;49.044;8.716;2023-05-07T06:11:18;5.10;;;1.83;;
25609;SDS011;13479;49.044;8.716;2023-05-07T06:13:43;3.20;;;1.73;;
25609;SDS011;13479;49.044;8.716;2023-05-07T06:16:08;2.03;;;1.30;;
25609;SDS011;13479;49.044;8.716;2023-05-07T06:18:34;2.70;;;1.40;;
25609;SDS011;13479;49.044;8.716;2023-05-07T06:21:01;3.58;;;1.60;;
25609;SDS011;13479;49.044;8.716;2023-05-07T06:23:26;1.77;;;1.17;;
25609;SDS011;13479;49.044;8.716;2023-05-07T06:25:51;1.30;;;1.20;;
25609;SDS011;13479;49.044;8.716;2023-05-07T06:28:16;3.05;;;1.48;;
25609;SDS011;13479;49.044;8.716;2023-05-07T06:30:42;2.83;;;1.55;;
25609;SDS011;13479;49.044;8.716;2023-05-07T06:33:07;1.70;;;1.13;;
25609;SDS011;13479;49.044;8.716;2023-05-07T06:35:32;2.88;;;1.17;;
25609;SDS011;13479;49.044;8.716;2023-05-07T06:37:58;2.08;;;1.40;;
25609;SDS011;13479;49.044;8.716;2023-05-07T06:40:23;3.63;;;1.45;;
25609;SDS011;13479;49.044;8.716;2023-05-07T06:42:48;2.22;;;1.63;;
25609;SDS011;13479;49.044;8.716;2023-05-07T06:45:13;4.03;;;1.77;;
25609;SDS011;13479;49.044;8.716;2023-05-07T06:47:39;7.90;;;1.83;;
25609;SDS011;13479;49.044;8.716;2023-05-07T06:50:04;3.05;;;1.42;;
25609;SDS011;13479;49.044;8.716;2023-05-07T06:52:30;2.88;;;1.60;;
25609;SDS011;13479;49.044;8.716;2023-05-07T06:54:55;4.63;;;1.50;;
25609;SDS011;13479;49.044;8.716;2023-05-07T06:57:20;3.47;;;1.75;;
25609;SDS011;13479;49.044;8.716;2023-05-07T06:59:46;1.58;;;1.20;;
25609;SDS011;13479;49.044;8.716;2023-05-07T07:02:11;1.70;;;1.27;;
25609;SDS011;13479;49.044;8.716;2023-05-07T07:04:36;1.65;;;1.23;;
25609;SDS011;13479;49.044;8.716;2023-05-07T07:07:02;1.73;;;1.20;;
25609;SDS011;13479;49.044;8.716;2023-05-07T07:09:27;1.95;;;1.30;;
25609;SDS011;13479;49.044;8.716;2023-05-07T07:11:52;1.67;;;1.23;;
25609;SDS011;13479;49.044;8.716;2023-05-07T07:14:17;2.95;;;1.33;;
25609;SDS011;13479;49.044;8.716;2023-05-07T07:16:43;2.13;;;1.10;;
25609;SDS011;13479;49.044;8.716;2023-05-07T07:19:08;3.33;;;1.38;;
25609;SDS011;13479;49.044;8.716;2023-05-07T07:21:33;1.90;;;1.35;;
25609;SDS011;13479;49.044;8.716;2023-05-07T07:23:59;1.95;;;1.08;;
25609;SDS011;13479;49.044;8.716;2023-05-07T07:26:24;1.60;;;1.10;;
25609;SDS011;13479;49.044;8.716;2023-05-07T07:28:49;1.90;;;1.17;;
25609;SDS011;13479;49.044;8.716;2023-05-07T07:31:14;3.05;;;1.48;;
25609;SDS011;13479;49.044;8.716;2023-05-07T07:33:40;2.35;;;1.23;;
25609;SDS011;13479;49.044;8.716;2023-05-07T07:36:05;3.25;;;1.20;;
25609;SDS011;13479;49.044;8.716;2023-05-07T07:38:31;1.45;;;1.02;;
25609;SDS011;13479;49.044;8.716;2023-05-07T07:40:57;2.85;;;1.40;;
25609;SDS011;13479;49.044;8.716;2023-05-07T07:43:22;4.15;;;1.17;;
25609;SDS011;13479;49.044;8.716;2023-05-07T07:45:47;2.38;;;1.30;;
25609;SDS011;13479;49.044;8.716;2023-05-07T07:48:12;3.38;;;1.10;;
25609;SDS011;13479;49.044;8.716;2023-05-07T07:50:38;6.72;;;1.23;;
25609;SDS011;13479;49.044;8.716;2023-05-07T07:53:03;3.47;;;1.20;;
25609;SDS011;13479;49.044;8.716;2023-05-07T07:55:28;2.75;;;1.40;;
25609;SDS011;13479;49.044;8.716;2023-05-07T07:57:54;5.15;;;1.10;;
25609;SDS011;13479;49.044;8.716;2023-05-07T08:00:19;2.03;;;1.25;;
25609;SDS011;13479;49.044;8.716;2023-05-07T08:02:45;1.70;;;1.10;;
25609;SDS011;13479;49.044;8.716;2023-05-07T08:05:10;2.65;;;1.20;;
25609;SDS011;13479;49.044;8.716;2023-05-07T08:07:35;3.38;;;1.30;;
25609;SDS011;13479;49.044;8.716;2023-05-07T08:10:01;2.65;;;1.23;;
25609;SDS011;13479;49.044;8.716;2023-05-07T08:12:27;4.28;;;1.48;;
25609;SDS011;13479;49.044;8.716;2023-05-07T08:14:52;1.92;;;1.38;;
25609;SDS011;13479;49.044;8.716;2023-05-07T08:17:17;3.83;;;1.25;;
25609;SDS011;13479;49.044;8.716;2023-05-07T08:19:43;1.83;;;1.02;;
25609;SDS011;13479;49.044;8.716;2023-05-07T08:22:08;2.80;;;1.55;;
25609;SDS011;13479;49.044;8.716;2023-05-07T08:24:35;3.47;;;1.60;;
25609;SDS011;13479;49.044;8.716;2023-05-07T08:27:01;3.42;;;1.40;;
25609;SDS011;13479;49.044;8.716;2023-05-07T08:29:26;3.28;;;1.27;;
25609;SDS011;13479;49.044;8.716;2023-05-07T08:31:51;3.88;;;1.40;;
25609;SDS011;13479;49.044;8.716;2023-05-07T08:34:16;2.78;;;1.48;;
25609;SDS011;13479;49.044;8.716;2023-05-07T08:36:41;3.55;;;1.35;;
25609;SDS011;13479;49.044;8.716;2023-05-07T08:39:07;4.95;;;1.27;;
25609;SDS011;13479;49.044;8.716;2023-05-07T08:41:32;3.20;;;1.25;;
25609;SDS011;13479;49.044;8.716;2023-05-07T08:43:58;2.45;;;1.42;;
25609;SDS011;13479;49.044;8.716;2023-05-07T08:46:27;1.98;;;1.33;;
25609;SDS011;13479;49.044;8.716;2023-05-07T08:48:56;2.05;;;1.33;;
25609;SDS011;13479;49.044;8.716;2023-05-07T08:51:22;3.53;;;1.55;;
25609;SDS011;13479;49.044;8.716;2023-05-07T08:53:48;1.77;;;1.40;;
25609;SDS011;13479;49.044;8.716;2023-05-07T08:56:14;2.45;;;1.40;;
25609;SDS011;13479;49.044;8.716;2023-05-07T08:58:42;3.17;;;1.48;;
25609;SDS011;13479;49.044;8.716;2023-05-07T09:01:14;2.35;;;1.30;;
25609;SDS011;13479;49.044;8.716;2023-05-07T09:03:42;1.83;;;1.30;;
25609;SDS011;13479;49.044;8.716;2023-05-07T09:06:09;3.20;;;1.40;;
25609;SDS011;13479;49.044;8.716;2023-05-07T09:08:35;3.05;;;1.38;;
25609;SDS011;13479;49.044;8.716;2023-05-07T09:11:01;3.85;;;1.40;;
25609;SDS011;13479;49.044;8.716;2023-05-07T09:13:27;2.47;;;1.40;;
25609;SDS011;13479;49.044;8.716;2023-05-07T09:15:53;2.53;;;1.40;;
25609;SDS011;13479;49.044;8.716;2023-05-07T09:18:18;4.25;;;1.58;;
25609;SDS011;13479;49.044;8.716;2023-05-07T09:20:43;2.90;;;1.35;;
25609;SDS011;13479;49.044;8.716;2023-05-07T09:23:09;2.60;;;1.40;;
25609;SDS011;13479;49.044;8.716;2023-05-07T09:25:34;2.17;;;1.38;;
25609;SDS011;13479;49.044;8.716;2023-05-07T09:28:01;3.65;;;1.60;;
25609;SDS011;13479;49.044;8.716;2023-05-07T09:30:28;2.13;;;1.48;;
25609;SDS011;13479;49.044;8.716;2023-05-07T09:32:54;3.60;;;1.30;;
25609;SDS011;13479;49.044;8.716;2023-05-07T09:35:19;4.25;;;1.60;;
25609;SDS011;13479;49.044;8.716;2023-05-07T09:37:46;2.25;;;1.17;;
25609;SDS011;13479;49.044;8.716;2023-05-07T09:40:30;2.33;;;1.38;;
25609;SDS011;13479;49.044;8.716;2023-05-07T09:42:56;3.40;;;1.50;;
25609;SDS011;13479;49.044;8.716;2023-05-07T09:45:22;1.95;;;1.30;;
25609;SDS011;13479;49.044;8.716;2023-05-07T09:47:47;2.38;;;1.20;;
25609;SDS011;13479;49.044;8.716;2023-05-07T09:50:17;1.77;;;1.38;;
25609;SDS011;13479;49.044;8.716;2023-05-07T09:52:44;2.55;;;1.40;;
25609;SDS011;13479;49.044;8.716;2023-05-07T09:55:10;2.83;;;1.20;;
25609;SDS011;13479;49.044;8.716;2023-05-07T09:57:35;3.72;;;1.45;;
25609;SDS011;13479;49.044;8.716;2023-05-07T10:00:01;2.67;;;1.60;;
25609;SDS011;13479;49.044;8.716;2023-05-07T10:02:31;2.10;;;1.25;;
25609;SDS011;13479;49.044;8.716;2023-05-07T10:05:00;1.85;;;1.38;;
25609;SDS011;13479;49.044;8.716;2023-05-07T10:07:26;2.97;;;1.30;;
25609;SDS011;13479;49.044;8.716;2023-05-07T10:09:52;2.67;;;1.45;;
25609;SDS011;13479;49.044;8.716;2023-05-07T10:12:18;3.67;;;1.20;;
25609;SDS011;13479;49.044;8.716;2023-05-07T10:14:45;2.45;;;1.30;;
25609;SDS011;13479;49.044;8.716;2023-05-07T10:17:11;2.03;;;1.42;;
25609;SDS011;13479;49.044;8.716;2023-05-07T10:19:37;2.92;;;1.13;;
25609;SDS011;13479;49.044;8.716;2023-05-07T10:22:04;2.25;;;1.52;;
25609;SDS011;13479;49.044;8.716;2023-05-07T10:24:33;2.40;;;1.35;;
25609;SDS011;13479;49.044;8.716;2023-05-07T10:27:01;3.15;;;1.20;;
25609;SDS011;13479;49.044;8.716;2023-05-07T10:34:54;2.40;;;1.33;;
25609;SDS011;13479;49.044;8.716;2023-05-07T10:37:23;2.70;;;1.17;;
25609;SDS011;13479;49.044;8.716;2023-05-07T10:39:50;2.60;;;1.20;;
25609;SDS011;13479;49.044;8.716;2023-05-07T10:42:16;2.97;;;1.30;;
25609;SDS011;13479;49.044;8.716;2023-05-07T10:44:41;2.53;;;1.08;;
25609;SDS011;13479;49.044;8.716;2023-05-07T10:52:10;4.72;;;1.50;;
25609;SDS011;13479;49.044;8.716;2023-05-07T10:54:40;3.92;;;1.10;;
25609;SDS011;13479;49.044;8.716;2023-05-07T10:59:53;3.60;;;1.40;;
25609;SDS011;13479;49.044;8.716;2023-05-07T11:02:18;2.20;;;1.35;;
25609;SDS011;13479;49.044;8.716;2023-05-07T11:04:43;3.53;;;1.30;;
25609;SDS011;13479;49.044;8.716;2023-05-07T11:07:14;2.45;;;1.30;;
25609;SDS011;13479;49.044;8.716;2023-05-07T11:09:57;1.73;;;1.10;;
25609;SDS011;13479;49.044;8.716;2023-05-07T11:12:59;3.47;;;1.30;;
25609;SDS011;13479;49.044;8.716;2023-05-07T11:15:34;2.15;;;1.02;;
25609;SDS011;13479;49.044;8.716;2023-05-07T11:18:01;2.72;;;1.38;;
25609;SDS011;13479;49.044;8.716;2023-05-07T11:28:29;3.00;;;1.40;;
25609;SDS011;13479;49.044;8.716;2023-05-07T11:30:55;3.30;;;1.10;;
25609;SDS011;13479;49.044;8.716;2023-05-07T11:33:21;1.55;;;0.90;;
25609;SDS011;13479;49.044;8.716;2023-05-07T11:35:47;1.95;;;1.05;;
25609;SDS011;13479;49.044;8.716;2023-05-07T11:38:12;2.30;;;1.27;;
25609;SDS011;13479;49.044;8.716;2023-05-07T11:40:59;2.90;;;1.40;;
25609;SDS011;13479;49.044;8.716;2023-05-07T11:43:25;2.92;;;1.20;;
25609;SDS011;13479;49.044;8.716;2023-05-07T11:45:51;3.35;;;1.35;;
25609;SDS011;13479;49.044;8.716;2023-05-07T11:48:17;1.83;;;1.00;;
25609;SDS011;13479;49.044;8.716;2023-05-07T11:50:52;2.58;;;1.20;;
25609;SDS011;13479;49.044;8.716;2023-05-07T11:53:19;1.55;;;1.10;;
25609;SDS011;13479;49.044;8.716;2023-05-07T11:55:45;2.17;;;1.40;;
25609;SDS011;13479;49.044;8.716;2023-05-07T11:58:12;2.70;;;1.38;;
25609;SDS011;13479;49.044;8.716;2023-05-07T12:00:51;4.78;;;1.42;;
25609;SDS011;13479;49.044;8.716;2023-05-07T12:03:17;2.97;;;1.48;;
25609;SDS011;13479;49.044;8.716;2023-05-07T12:05:44;1.63;;;1.00;;
25609;SDS011;13479;49.044;8.716;2023-05-07T12:08:13;2.92;;;1.42;;
25609;SDS011;13479;49.044;8.716;2023-05-07T12:10:43;3.78;;;1.33;;
25609;SDS011;13479;49.044;8.716;2023-05-07T12:15:41;2.75;;;1.25;;
25609;SDS011;13479;49.044;8.716;2023-05-07T12:18:07;3.47;;;1.45;;
25609;SDS011;13479;49.044;8.716;2023-05-07T12:20:34;2.60;;;1.23;;
25609;SDS011;13479;49.044;8.716;2023-05-07T12:23:01;5.13;;;1.70;;
25609;SDS011;13479;49.044;8.716;2023-05-07T12:25:26;5.85;;;2.90;;
25609;SDS011;13479;49.044;8.716;2023-05-07T12:27:54;3.08;;;1.50;;
25609;SDS011;13479;49.044;8.716;2023-05-07T12:30:20;2.20;;;1.40;;
25609;SDS011;13479;49.044;8.716;2023-05-07T12:32:45;4.70;;;1.40;;
25609;SDS011;13479;49.044;8.716;2023-05-07T12:35:10;1.95;;;1.48;;
25609;SDS011;13479;49.044;8.716;2023-05-07T12:37:36;2.25;;;1.00;;
25609;SDS011;13479;49.044;8.716;2023-05-07T12:40:04;2.00;;;1.23;;
25609;SDS011;13479;49.044;8.716;2023-05-07T12:42:32;2.70;;;1.50;;
25609;SDS011;13479;49.044;8.716;2023-05-07T12:45:00;3.05;;;1.40;;
25609;SDS011;13479;49.044;8.716;2023-05-07T12:47:32;2.58;;;1.33;;
25609;SDS011;13479;49.044;8.716;2023-05-07T12:49:58;1.77;;;1.10;;
25609;SDS011;13479;49.044;8.716;2023-05-07T12:52:24;2.40;;;1.20;;
25609;SDS011;13479;49.044;8.716;2023-05-07T12:54:49;2.10;;;1.10;;
25609;SDS011;13479;49.044;8.716;2023-05-07T12:57:14;2.42;;;0.65;;
25609;SDS011;13479;49.044;8.716;2023-05-07T12:59:45;2.63;;;1.00;;
25609;SDS011;13479;49.044;8.716;2023-05-07T13:02:10;1.80;;;1.30;;
25609;SDS011;13479;49.044;8.716;2023-05-07T13:04:35;2.47;;;1.50;;
25609;SDS011;13479;49.044;8.716;2023-05-07T13:07:01;4.78;;;1.58;;
25609;SDS011;13479;49.044;8.716;2023-05-07T13:09:27;3.72;;;1.50;;
25609;SDS011;13479;49.044;8.716;2023-05-07T13:11:54;3.03;;;1.70;;
25609;SDS011;13479;49.044;8.716;2023-05-07T13:14:19;5.32;;;1.70;;
25609;SDS011;13479;49.044;8.716;2023-05-07T13:16:45;4.88;;;1.48;;
25609;SDS011;13479;49.044;8.716;2023-05-07T13:19:11;4.45;;;1.15;;
25609;SDS011;13479;49.044;8.716;2023-05-07T13:21:36;4.47;;;1.33;;
25609;SDS011;13479;49.044;8.716;2023-05-07T13:24:02;3.20;;;1.38;;
25609;SDS011;13479;49.044;8.716;2023-05-07T13:26:29;1.85;;;1.20;;
25609;SDS011;13479;49.044;8.716;2023-05-07T13:28:56;2.58;;;1.70;;
25609;SDS011;13479;49.044;8.716;2023-05-07T13:31:21;10.55;;;1.95;;
25609;SDS011;13479;49.044;8.716;2023-05-07T13:33:46;3.00;;;1.33;;
25609;SDS011;13479;49.044;8.716;2023-05-07T13:36:12;13.98;;;3.53;;
25609;SDS011;13479;49.044;8.716;2023-05-07T13:38:38;11.52;;;3.05;;
25609;SDS011;13479;49.044;8.716;2023-05-07T13:41:04;9.85;;;2.90;;
25609;SDS011;13479;49.044;8.716;2023-05-07T13:43:29;11.23;;;3.80;;
25609;SDS011;13479;49.044;8.716;2023-05-07T13:45:54;6.93;;;2.50;;
25609;SDS011;13479;49.044;8.716;2023-05-07T13:48:20;10.80;;;2.70;;
25609;SDS011;13479;49.044;8.716;2023-05-07T13:50:45;8.50;;;1.85;;
25609;SDS011;13479;49.044;8.716;2023-05-07T13:53:10;4.65;;;1.35;;
25609;SDS011;13479;49.044;8.716;2023-05-07T13:55:35;5.50;;;1.73;;
25609;SDS011;13479;49.044;8.716;2023-05-07T13:58:01;4.68;;;1.77;;
25609;SDS011;13479;49.044;8.716;2023-05-07T14:00:27;5.63;;;1.50;;
25609;SDS011;13479;49.044;8.716;2023-05-07T14:02:54;6.60;;;2.53;;
25609;SDS011;13479;49.044;8.716;2023-05-07T14:05:20;4.50;;;1.65;;
25609;SDS011;13479;49.044;8.716;2023-05-07T14:07:45;6.85;;;1.80;;
25609;SDS011;13479;49.044;8.716;2023-05-07T14:10:11;9.15;;;1.85;;
25609;SDS011;13479;49.044;8.716;2023-05-07T14:12:37;6.25;;;1.95;;
25609;SDS011;13479;49.044;8.716;2023-05-07T14:15:03;6.57;;;1.95;;
25609;SDS011;13479;49.044;8.716;2023-05-07T14:17:28;5.72;;;1.50;;
25609;SDS011;13479;49.044;8.716;2023-05-07T14:19:54;5.60;;;1.90;;
25609;SDS011;13479;49.044;8.716;2023-05-07T14:22:20;8.18;;;1.73;;
25609;SDS011;13479;49.044;8.716;2023-05-07T14:24:49;7.45;;;1.88;;
25609;SDS011;13479;49.044;8.716;2023-05-07T14:27:15;8.43;;;2.10;;
25609;SDS011;13479;49.044;8.716;2023-05-07T14:29:40;5.65;;;2.30;;
25609;SDS011;13479;49.044;8.716;2023-05-07T14:32:06;5.72;;;2.13;;
25609;SDS011;13479;49.044;8.716;2023-05-07T14:34:31;3.88;;;2.30;;
25609;SDS011;13479;49.044;8.716;2023-05-07T14:36:57;8.35;;;2.10;;
25609;SDS011;13479;49.044;8.716;2023-05-07T14:39:22;7.45;;;2.65;;
25609;SDS011;13479;49.044;8.716;2023-05-07T14:41:48;6.45;;;2.10;;
25609;SDS011;13479;49.044;8.716;2023-05-07T14:44:14;6.45;;;2.45;;
25609;SDS011;13479;49.044;8.716;2023-05-07T14:46:39;6.22;;;2.45;;
25609;SDS011;13479;49.044;8.716;2023-05-07T14:49:04;5.88;;;2.50;;
25609;SDS011;13479;49.044;8.716;2023-05-07T14:51:30;5.07;;;2.80;;
25609;SDS011;13479;49.044;8.716;2023-05-07T14:53:55;7.13;;;3.30;;
25609;SDS011;13479;49.044;8.716;2023-05-07T14:56:21;6.55;;;3.17;;
25609;SDS011;13479;49.044;8.716;2023-05-07T14:58:47;5.35;;;2.35;;
25609;SDS011;13479;49.044;8.716;2023-05-07T15:01:13;7.25;;;2.80;;
25609;SDS011;13479;49.044;8.716;2023-05-07T15:03:38;6.95;;;2.50;;
25609;SDS011;13479;49.044;8.716;2023-05-07T15:06:04;5.63;;;2.33;;
25609;SDS011;13479;49.044;8.716;2023-05-07T15:08:29;6.63;;;2.60;;
25609;SDS011;13479;49.044;8.716;2023-05-07T15:10:55;7.78;;;2.63;;
25609;SDS011;13479;49.044;8.716;2023-05-07T15:13:20;10.32;;;3.42;;
25609;SDS011;13479;49.044;8.716;2023-05-07T15:15:46;5.05;;;3.10;;
25609;SDS011;13479;49.044;8.716;2023-05-07T15:18:11;6.25;;;2.70;;
25609;SDS011;13479;49.044;8.716;2023-05-07T15:20:36;4.72;;;2.53;;
25609;SDS011;13479;49.044;8.716;2023-05-07T15:23:02;5.15;;;2.00;;
25609;SDS011;13479;49.044;8.716;2023-05-07T15:25:30;5.60;;;3.15;;
25609;SDS011;13479;49.044;8.716;2023-05-07T15:27:57;4.97;;;2.60;;
25609;SDS011;13479;49.044;8.716;2023-05-07T15:30:22;5.72;;;2.55;;
25609;SDS011;13479;49.044;8.716;2023-05-07T15:32:48;5.32;;;2.58;;
25609;SDS011;13479;49.044;8.716;2023-05-07T15:35:13;3.97;;;2.40;;
25609;SDS011;13479;49.044;8.716;2023-05-07T15:37:38;4.88;;;2.50;;
25609;SDS011;13479;49.044;8.716;2023-05-07T15:40:04;6.05;;;2.50;;
25609;SDS011;13479;49.044;8.716;2023-05-07T15:42:31;8.48;;;2.88;;
25609;SDS011;13479;49.044;8.716;2023-05-07T15:44:57;5.30;;;2.30;;
25609;SDS011;13479;49.044;8.716;2023-05-07T15:47:25;3.55;;;2.10;;
25609;SDS011;13479;49.044;8.716;2023-05-07T15:49:50;4.65;;;2.42;;
25609;SDS011;13479;49.044;8.716;2023-05-07T15:52:15;4.13;;;2.22;;
25609;SDS011;13479;49.044;8.716;2023-05-07T15:54:41;3.78;;;1.60;;
25609;SDS011;13479;49.044;8.716;2023-05-07T15:57:06;4.88;;;1.92;;
25609;SDS011;13479;49.044;8.716;2023-05-07T15:59:32;5.75;;;1.88;;
25609;SDS011;13479;49.044;8.716;2023-05-07T16:01:58;7.13;;;2.67;;
25609;SDS011;13479;49.044;8.716;2023-05-07T16:04:23;6.80;;;2.47;;
25609;SDS011;13479;49.044;8.716;2023-05-07T16:06:48;9.07;;;2.42;;
25609;SDS011;13479;49.044;8.716;2023-05-07T16:09:14;4.28;;;2.40;;
25609;SDS011;13479;49.044;8.716;2023-05-07T16:11:40;3.40;;;2.25;;
25609;SDS011;13479;49.044;8.716;2023-05-07T16:14:06;6.97;;;1.85;;
25609;SDS011;13479;49.044;8.716;2023-05-07T16:16:34;5.38;;;2.20;;
25609;SDS011;13479;49.044;8.716;2023-05-07T16:19:01;4.25;;;1.70;;
25609;SDS011;13479;49.044;8.716;2023-05-07T16:21:27;2.65;;;1.50;;
25609;SDS011;13479;49.044;8.716;2023-05-07T16:23:52;3.45;;;1.75;;
25609;SDS011;13479;49.044;8.716;2023-05-07T16:26:17;3.45;;;1.70;;
25609;SDS011;13479;49.044;8.716;2023-05-07T16:28:43;3.45;;;1.63;;
25609;SDS011;13479;49.044;8.716;2023-05-07T16:31:08;7.28;;;2.38;;
25609;SDS011;13479;49.044;8.716;2023-05-07T16:33:34;2.40;;;1.80;;
25609;SDS011;13479;49.044;8.716;2023-05-07T16:35:59;4.80;;;1.60;;
25609;SDS011;13479;49.044;8.716;2023-05-07T16:38:25;4.38;;;1.95;;
25609;SDS011;13479;49.044;8.716;2023-05-07T16:40:52;4.65;;;1.73;;
25609;SDS011;13479;49.044;8.716;2023-05-07T16:43:17;3.50;;;1.75;;
25609;SDS011;13479;49.044;8.716;2023-05-07T16:45:44;4.47;;;1.90;;
25609;SDS011;13479;49.044;8.716;2023-05-07T16:48:10;2.42;;;1.70;;
25609;SDS011;13479;49.044;8.716;2023-05-07T16:50:35;7.63;;;1.90;;
25609;SDS011;13479;49.044;8.716;2023-05-07T16:53:01;3.20;;;1.60;;
25609;SDS011;13479;49.044;8.716;2023-05-07T16:55:26;3.47;;;1.80;;
25609;SDS011;13479;49.044;8.716;2023-05-07T16:57:51;4.20;;;2.20;;
25609;SDS011;13479;49.044;8.716;2023-05-07T17:00:16;5.45;;;2.30;;
25609;SDS011;13479;49.044;8.716;2023-05-07T17:02:42;4.57;;;2.08;;
25609;SDS011;13479;49.044;8.716;2023-05-07T17:05:07;3.88;;;2.10;;
25609;SDS011;13479;49.044;8.716;2023-05-07T17:07:33;4.78;;;2.00;;
25609;SDS011;13479;49.044;8.716;2023-05-07T17:09:58;4.20;;;1.95;;
25609;SDS011;13479;49.044;8.716;2023-05-07T17:12:23;3.20;;;1.75;;
25609;SDS011;13479;49.044;8.716;2023-05-07T17:14:50;4.43;;;1.77;;
25609;SDS011;13479;49.044;8.716;2023-05-07T17:17:15;5.88;;;1.85;;
25609;SDS011;13479;49.044;8.716;2023-05-07T17:19:40;3.75;;;1.65;;
25609;SDS011;13479;49.044;8.716;2023-05-07T17:22:06;4.35;;;1.80;;
25609;SDS011;13479;49.044;8.716;2023-05-07T17:24:31;5.28;;;1.90;;
25609;SDS011;13479;49.044;8.716;2023-05-07T17:26:56;3.47;;;1.90;;
25609;SDS011;13479;49.044;8.716;2023-05-07T17:29:22;7.03;;;1.77;;
25609;SDS011;13479;49.044;8.716;2023-05-07T17:31:47;7.15;;;1.90;;
25609;SDS011;13479;49.044;8.716;2023-05-07T17:34:13;2.63;;;1.80;;
25609;SDS011;13479;49.044;8.716;2023-05-07T17:36:38;4.18;;;2.40;;
25609;SDS011;13479;49.044;8.716;2023-05-07T17:39:04;7.22;;;2.03;;
25609;SDS011;13479;49.044;8.716;2023-05-07T17:41:29;3.22;;;2.00;;
25609;SDS011;13479;49.044;8.716;2023-05-07T17:43:54;4.13;;;2.30;;
25609;SDS011;13479;49.044;8.716;2023-05-07T17:46:19;9.50;;;2.25;;
25609;SDS011;13479;49.044;8.716;2023-05-07T17:48:45;4.50;;;2.50;;
25609;SDS011;13479;49.044;8.716;2023-05-07T17:51:10;5.63;;;2.40;;
25609;SDS011;13479;49.044;8.716;2023-05-07T17:53:35;6.85;;;3.35;;
25609;SDS011;13479;49.044;8.716;2023-05-07T17:56:01;6.40;;;2.78;;
25609;SDS011;13479;49.044;8.716;2023-05-07T17:58:26;4.28;;;2.33;;
25609;SDS011;13479;49.044;8.716;2023-05-07T18:00:54;8.18;;;2.30;;
25609;SDS011;13479;49.044;8.716;2023-05-07T18:03:20;5.22;;;2.38;;
25609;SDS011;13479;49.044;8.716;2023-05-07T18:05:45;4.93;;;2.67;;
25609;SDS011;13479;49.044;8.716;2023-05-07T18:08:10;5.47;;;3.10;;
25609;SDS011;13479;49.044;8.716;2023-05-07T18:10:36;5.82;;;3.65;;
25609;SDS011;13479;49.044;8.716;2023-05-07T18:13:01;7.30;;;3.00;;
25609;SDS011;13479;49.044;8.716;2023-05-07T18:15:27;3.90;;;2.50;;
25609;SDS011;13479;49.044;8.716;2023-05-07T18:17:52;5.45;;;2.13;;
25609;SDS011;13479;49.044;8.716;2023-05-07T18:20:17;2.90;;;2.05;;
25609;SDS011;13479;49.044;8.716;2023-05-07T18:22:43;3.22;;;1.90;;
25609;SDS011;13479;49.044;8.716;2023-05-07T18:25:08;4.40;;;2.40;;
25609;SDS011;13479;49.044;8.716;2023-05-07T18:27:33;4.43;;;2.10;;
25609;SDS011;13479;49.044;8.716;2023-05-07T18:29:59;4.38;;;2.20;;
25609;SDS011;13479;49.044;8.716;2023-05-07T18:32:24;2.97;;;2.00;;
25609;SDS011;13479;49.044;8.716;2023-05-07T18:34:49;5.25;;;1.92;;
25609;SDS011;13479;49.044;8.716;2023-05-07T18:37:15;5.03;;;2.00;;
25609;SDS011;13479;49.044;8.716;2023-05-07T18:39:40;3.63;;;2.28;;
25609;SDS011;13479;49.044;8.716;2023-05-07T18:42:07;5.78;;;2.40;;
25609;SDS011;13479;49.044;8.716;2023-05-07T18:44:33;3.65;;;1.83;;
25609;SDS011;13479;49.044;8.716;2023-05-07T18:47:02;6.93;;;2.22;;
25609;SDS011;13479;49.044;8.716;2023-05-07T18:49:27;4.80;;;1.80;;
25609;SDS011;13479;49.044;8.716;2023-05-07T18:51:53;4.30;;;1.98;;
25609;SDS011;13479;49.044;8.716;2023-05-07T18:54:18;3.72;;;2.03;;
25609;SDS011;13479;49.044;8.716;2023-05-07T18:56:43;5.28;;;2.35;;
25609;SDS011;13479;49.044;8.716;2023-05-07T18:59:09;9.90;;;2.35;;
25609;SDS011;13479;49.044;8.716;2023-05-07T19:01:34;2.95;;;1.80;;
25609;SDS011;13479;49.044;8.716;2023-05-07T19:03:59;3.88;;;2.13;;
25609;SDS011;13479;49.044;8.716;2023-05-07T19:06:25;4.80;;;2.22;;